Nearby METAR Reports

Live Weather Gauges   
Station Dashboard   
KEIK - Erie Muni, Colorado, USA
Distance from station: NW 9mi, 15km
Updated: Sun, 23-Jun-2024 3:55am MDT
Clear
Clear
 Wind from varies
Wind: varies 5 mph, 7 km/h
Temperature: 55°F, 13°C
Dew Point: 45°F, 7°C
Humidity: 67%
Barometer: 30.11 inHg, 1019.6 hPa
Clouds: Clear
Visibility: 10 miles, 16 km
2024/06/23 09:55 KEIK 230955Z AUTO VRB04KT 10SM CLR 13/07 A3011 RMK AO2 T01250068
KBJC - Broomfield/Jeffco, Colorado, USA
Distance from station: W 10mi, 16km
Updated: Sun, 23-Jun-2024 3:55am MDT
Clear
Clear
 Wind from W
Wind: W 13 mph, 20 km/h
Temperature: 68°F, 20°C
Dew Point: 36°F, 2°C
Humidity: 30%
Barometer: 30.17 inHg, 1021.7 hPa
Clouds: Clear
Visibility: 10 miles, 16 km
2024/06/23 09:55 KBJC 230955Z AUTO 28011KT 10SM CLR 20/02 A3017 RMK AO2
KDEN - Denver (DIA), Colorado, USA
Distance from station: ESE 16mi, 26km
Updated: Sun, 23-Jun-2024 3:53am MDT
Clear
Clear
 Wind from SW
Wind: SW 13 mph, 20 km/h
Temperature: 66°F, 19°C
Dew Point: 43°F, 6°C
Humidity: 43%
Barometer: 30.14 inHg, 1020.7 hPa
Clouds: Clear
Visibility: 10 miles, 16 km
2024/06/23 09:53 KDEN 230953Z 22011KT 10SM CLR 19/06 A3014 RMK AO2 SLP115 T01940061
 
KBKF - Buckley ANGB/Den, Colorado, USA
Distance from station: SE 17mi, 27km
Updated: Sun, 23-Jun-2024 3:58am MDT
Few Clouds
Few Clouds
 Wind from SSW
Wind: SSW 12 mph, 19 km/h
Temperature: 64°F, 18°C
Dew Point: 43°F, 6°C
Humidity: 46%
Barometer: 30.15 inHg, 1021 hPa
Clouds: Few Clouds
Visibility: 10 miles, 16 km
Cloud details: Few Clouds 12000 ft
2024/06/23 09:58 KBKF 230958Z 20010KT 10SM FEW120 18/06 A3015 RMK AO2A SLP126 T01780057
KBDU - Boulder Muni, Colorado, USA
Distance from station: WNW 18mi, 29km
Updated: Sun, 23-Jun-2024 3:55am MDT
Clear
Clear
 Wind from calm
Wind: Calm
Temperature: 70°F, 21°C
Dew Point: 36°F, 2°C
Humidity: 29%
Barometer: 30.13 inHg, 1020.3 hPa
Clouds: Clear
Visibility: 10 miles, 16 km
2024/06/23 09:55 KBDU 230955Z AUTO 00000KT 10SM CLR 21/02 A3013 RMK AO2
KLMO - Longmont/Vbrand, Colorado, USA
Distance from station: NW 21mi, 34km
Updated: Tue, 18-Jun-2024 2:46pm MDT
NOT Current
Clear
Clear
 Wind from SE
Wind: SE 13 mph, 20 km/h, Gust: 18 mph, 30 km/h
Temperature: 75°F, 24°C
Dew Point: 25°F, -4°C
Humidity: 15%
Barometer: 29.98 inHg, 1015.2 hPa
Clouds: Clear
Visibility: 7 miles, 11 km
2024/06/18 20:46 KLMO 182046Z AUTO 14011G16KT 7SM CLR 24/M04 A2998 RMK AO2 T02371038
 
KAPA - Denver/Arapahoe, Colorado, USA
Distance from station: S 25mi, 39km
Updated: Sun, 23-Jun-2024 3:53am MDT
Few Clouds
Few Clouds
 Wind from ESE
Wind: ESE 6 mph, 9 km/h
Temperature: 63°F, 17°C
Dew Point: 43°F, 6°C
Humidity: 49%
Barometer: 30.18 inHg, 1022 hPa
Clouds: Few Clouds
Visibility: 10 miles, 16 km
Cloud details: Few Clouds 10000 ft
2024/06/23 09:53 KAPA 230953Z 12005KT 10SM FEW100 17/06 A3018 RMK AO2 SLP140 T01670056
KFNL - Ft Collins/Lovel, Colorado, USA
Distance from station: N 37mi, 60km
Updated: Sun, 23-Jun-2024 3:56am MDT
Clear
Clear
 Wind from NW
Wind: NW 3 mph, 6 km/h
Temperature: 57°F, 14°C
Dew Point: 46°F, 8°C
Humidity: 67%
Barometer: 30.12 inHg, 1020 hPa
Clouds: Clear
Visibility: 10 miles, 16 km
2024/06/23 09:56 KFNL 230956Z 32003KT 10SM CLR 14/08 A3012 RMK AO2 SLP137 T01440078
KGXY - Greeley/Weld, Colorado, USA
Distance from station: NNE 38mi, 62km
Updated: Sun, 23-Jun-2024 3:56am MDT
Clear
Clear
 Wind from N
Wind: N 5 mph, 7 km/h
Temperature: 55°F, 13°C
Dew Point: 50°F, 10°C
Humidity: 82%
Barometer: 30.10 inHg, 1019.3 hPa
Clouds: Clear
Visibility: 10 miles, 16 km
2024/06/23 09:56 KGXY 230956Z 36004KT 10SM CLR 13/10 A3010 RMK AO2 SLP152 T01330100
 
KMNH - Monument/Elbert, Colorado, USA
Distance from station: SSE 51mi, 81km
Updated: Sun, 23-Jun-2024 3:55am MDT
Clear
Clear
 Wind from SW
Wind: SW 10 mph, 17 km/h
Temperature: 55°F, 13°C
Dew Point: 41°F, 5°C
Humidity: 59%
Barometer: 30.30 inHg, 1026.1 hPa
Clouds: Clear
Visibility: 10 miles, 16 km
2024/06/23 09:55 KMNH 230955Z AUTO 22009KT 10SM CLR 13/05 A3030 RMK AO2
KAFF - USAF Academy/Cos, Colorado, USA
Distance from station: S 66mi, 106km
Updated: Sun, 23-Jun-2024 3:55am MDT
Clear
Clear
 Wind from calm
Wind: Calm
Temperature: 55°F, 13°C
Dew Point: 46°F, 8°C
Humidity: 72%
Barometer: 30.24 inHg, 1024 hPa
Clouds: Clear
Visibility: 10 miles, 16 km
2024/06/23 09:55 KAFF 230955Z AUTO 00000KT 10SM CLR 13/08 A3024 RMK AO2 SLP142 T01280079
K4BM - Wilkerson Pass, Colorado, USA
Distance from station: SSW 68mi, 109km
Updated: Sun, 23-Jun-2024 3:55am MDT
Clear
Clear
 Wind from SSW
Wind: SSW 8 mph, 13 km/h
Temperature: 52°F, 11°C
Dew Point: 34°F, 1°C
Humidity: 50%
Barometer: 30.64 inHg, 1037.6 hPa
Clouds: Clear
Visibility: 10 miles, 16 km
2024/06/23 09:55 K4BM 230955Z AUTO 21007KT 10SM CLR 11/01 A3064 RMK AO2
 
KFLY - Co Spngs Meadow, Colorado, USA
Distance from station: SSE 70mi, 112km
Updated: Sun, 23-Jun-2024 3:55am MDT
Clear
Clear
 Wind from NNW
Wind: NNW 7 mph, 11 km/h
Temperature: 55°F, 13°C
Dew Point: 43°F, 6°C
Humidity: 63%
Barometer: 30.29 inHg, 1025.7 hPa
Clouds: Clear
Visibility: 10 miles, 16 km
2024/06/23 09:55 KFLY 230955Z AUTO 33006KT 10SM CLR 13/06 A3029 RMK AO2 T01340061
KCCU - Red Cliff Pass, Colorado, USA
Distance from station: WSW 72mi, 116km
Updated: Sun, 23-Jun-2024 3:55am MDT
Clear
Clear
 Wind from WSW
Wind: WSW 7 mph, 11 km/h
Temperature: 50°F, 10°C
Wind Chill: 47°F, 8°C
Dew Point: 32°F, 0°C
Humidity: 50%
Barometer: 30.69 inHg, 1039.3 hPa
Clouds: Clear
Visibility: 10 miles, 16 km
2024/06/23 09:55 KCCU 230955Z AUTO 25006KT 10SM CLR 10/00 A3069 RMK AO2
K20V - Kremmling Awos, Colorado, USA
Distance from station: W 77mi, 123km
Updated: Sun, 23-Jun-2024 3:55am MDT
Clear
Clear
 Wind from calm
Wind: Calm
Temperature: 39°F, 4°C
Dew Point: 39°F, 4°C
Humidity: 100%
Barometer: 30.42 inHg, 1030.1 hPa
Clouds: Clear
Visibility: 10 miles, 16 km
2024/06/23 09:55 K20V 230955Z AUTO 00000KT 10SM CLR 04/04 A3042 RMK AO2
 
KCOS - Colorado Springs, Colorado, USA
Distance from station: S 77mi, 124km
Updated: Sun, 23-Jun-2024 3:54am MDT
Partly cloudy
Partly cloudy
 Wind from WNW
Wind: WNW 5 mph, 7 km/h
Temperature: 57°F, 14°C
Dew Point: 46°F, 8°C
Humidity: 67%
Barometer: 30.24 inHg, 1024 hPa
Clouds: Partly cloudy
Visibility: 10 miles, 16 km
Cloud details: Few Clouds 15000 ft
Partly cloudy 20000 ft
2024/06/23 09:54 KCOS 230954Z 30004KT 10SM FEW150 SCT200 14/08 A3024 RMK AO2 SLP151 T01440078
KLIC - Limon, Colorado, USA
Distance from station: ESE 81mi, 130km
Updated: Sun, 23-Jun-2024 3:55am MDT
Clear
Clear
 Wind from N
Wind: N 6 mph, 9 km/h
Temperature: 54°F, 12°C
Dew Point: 39°F, 4°C
Humidity: 58%
Barometer: 30.16 inHg, 1021.3 hPa
Clouds: Clear
Visibility: 10 miles, 16 km
2024/06/23 09:55 KLIC 230955Z AUTO 36005KT 10SM CLR 12/04 A3016 RMK AO2 SLP138 T01170044
KFEW - Warren Air Base, Wyoming, USA
Distance from station: N 84mi, 135km
Updated: Sun, 23-Jun-2024 3:55am MDT
Few Clouds
Few Clouds
 Wind from calm
Wind: Calm
Temperature: 55°F, 13°C
Dew Point: 43°F, 6°C
Humidity: 63%
Barometer: 30.18 inHg, 1022 hPa
Clouds: Few Clouds
Visibility: 10 miles, 16 km
Cloud details: Few Clouds 13000 ft
2024/06/23 09:55 KFEW 230955Z AUTO 00000KT 10SM FEW130 13/06 A3018 RMK AO2 SLP143 T01310055 $
 
KCYS - Cheyenne, Wyoming, USA
Distance from station: N 85mi, 138km
Updated: Sun, 23-Jun-2024 3:53am MDT
Clear
Clear
 Wind from WSW
Wind: WSW 10 mph, 17 km/h
Temperature: 57°F, 14°C
Dew Point: 41°F, 5°C
Humidity: 55%
Barometer: 30.17 inHg, 1021.7 hPa
Clouds: Clear
Visibility: 10 miles, 16 km
2024/06/23 09:53 KCYS 230953Z AUTO 25009KT 10SM CLR 14/05 A3017 RMK AO2 SLP130 T01440050